Time;durP1;ratioP1;P1;durP2;ratioP2;P2;SDS_P1;SDS_P2;PMS_P1;PMS_P2;Temp;Humidity;BMP_temperature;BMP_pressure;BME280_temperature;BME280_humidity;BME280_pressure;Samples;Min_cycle;Max_cycle;Signal;HPM_P1;HPM_P2
2023/06/13 00:02:39;;;;;;;29.83;26.55;;;;;;;21.31;100.00;99242.16;5123156;27;20133;-82
2023/06/13 00:05:24;;;;;;;28.75;24.45;;;;;;;21.17;100.00;99242.63;5133986;27;20050;-82
2023/06/13 00:08:09;;;;;;;27.60;24.25;;;;;;;21.08;100.00;99241.50;5134280;27;20034;-80
2023/06/13 00:10:52;;;;;;;32.17;26.95;;;;;;;20.81;100.00;99231.75;5123788;27;20038;-80
2023/06/13 00:13:40;;;;;;;29.65;25.30;;;;;;;20.67;100.00;99236.69;5130872;27;20034;-81
2023/06/13 00:16:25;;;;;;;32.10;27.00;;;;;;;20.65;100.00;99244.16;5128685;27;20083;-81
2023/06/13 00:19:11;;;;;;;30.63;27.27;;;;;;;20.52;100.00;99235.53;5132519;27;20042;-81
2023/06/13 00:21:56;;;;;;;28.83;24.90;;;;;;;20.40;100.00;99238.38;5136857;27;20085;-82
2023/06/13 00:24:44;;;;;;;29.75;26.58;;;;;;;20.27;100.00;99233.47;5125954;27;20092;-82
2023/06/13 00:27:30;;;;;;;30.98;26.92;;;;;;;20.28;100.00;99235.09;5127945;27;20038;-82
2023/06/13 00:30:15;;;;;;;29.95;25.90;;;;;;;20.27;100.00;99238.81;5133534;27;20446;-82
2023/06/13 00:32:59;;;;;;;28.02;24.63;;;;;;;20.24;100.00;99233.97;5140841;27;20046;-82
2023/06/13 00:35:44;;;;;;;33.97;28.58;;;;;;;20.21;100.00;99240.63;5135182;27;20034;-82
2023/06/13 00:38:29;;;;;;;31.00;27.13;;;;;;;20.16;100.00;99237.09;5132586;27;20099;-82
2023/06/13 00:41:13;;;;;;;35.33;29.63;;;;;;;20.14;100.00;99249.88;5146857;27;20042;-83
2023/06/13 00:43:57;;;;;;;37.83;30.13;;;;;;;20.15;100.00;99241.66;5133499;27;20050;-82
2023/06/13 00:46:43;;;;;;;35.97;29.10;;;;;;;20.23;100.00;99246.50;5123267;27;20051;-83
2023/06/13 00:49:28;;;;;;;35.90;30.05;;;;;;;20.27;100.00;99238.81;5109616;27;20076;-82
2023/06/13 00:52:13;;;;;;;33.80;28.70;;;;;;;20.17;100.00;99233.38;5136184;27;20037;-83
2023/06/13 00:54:57;;;;;;;38.08;30.98;;;;;;;20.09;100.00;99243.47;5131546;27;20058;-82
2023/06/13 00:57:42;;;;;;;37.40;30.20;;;;;;;20.02;100.00;99234.06;5134670;27;20070;-82
2023/06/13 01:00:26;;;;;;;34.75;27.35;;;;;;;19.92;100.00;99226.78;5138911;27;20088;-82
2023/06/13 01:03:15;;;;;;;29.42;24.83;;;;;;;19.88;100.00;99241.63;5128406;27;20041;-83
2023/06/13 01:06:00;;;;;;;29.30;24.23;;;;;;;19.69;100.00;99228.66;5129143;27;20506;-82
2023/06/13 01:08:47;;;;;;;28.38;24.38;;;;;;;19.66;100.00;99231.81;5125398;27;20030;-82
2023/06/13 01:11:40;;;;;;;35.53;26.77;;;;;;;19.44;100.00;99219.31;5136102;27;20108;-81
2023/06/13 01:14:59;;;;;;;29.70;26.00;;;;;;;19.54;100.00;99227.41;5127291;27;20042;-82
2023/06/13 01:17:57;;;;;;;43.17;27.45;;;;;;;19.66;100.00;99235.28;5134465;27;20038;-81
2023/06/13 01:20:44;;;;;;;30.42;24.80;;;;;;;19.58;100.00;99237.56;5120420;27;20034;-83
2023/06/13 01:23:31;;;;;;;30.23;24.13;;;;;;;19.49;100.00;99235.34;5119837;27;20116;-82
2023/06/13 01:26:21;;;;;;;28.52;23.55;;;;;;;19.41;100.00;99230.44;5136957;27;20056;-81
2023/06/13 01:29:06;;;;;;;25.40;22.25;;;;;;;19.38;100.00;99230.94;5135208;27;20050;-82
2023/06/13 01:31:53;;;;;;;25.55;22.90;;;;;;;19.33;100.00;99229.03;5119810;27;20041;-82
2023/06/13 01:34:39;;;;;;;29.08;21.90;;;;;;;19.37;100.00;99232.00;5112498;27;20042;-82
2023/06/13 01:37:23;;;;;;;27.20;22.38;;;;;;;19.21;100.00;99237.13;5120453;27;20041;-82
2023/06/13 01:40:08;;;;;;;25.98;20.80;;;;;;;19.11;100.00;99235.16;5124058;27;20030;-82
2023/06/13 01:42:52;;;;;;;25.65;21.35;;;;;;;19.03;100.00;99242.75;5131055;27;20050;-82
2023/06/13 01:45:37;;;;;;;20.60;17.80;;;;;;;19.02;100.00;99236.63;5128363;27;20065;-82
2023/06/13 01:48:42;;;;;;;20.95;18.73;;;;;;;18.94;100.00;99227.19;5131053;27;20169;-82
2023/06/13 01:51:55;;;;;;;25.15;18.30;;;;;;;19.05;100.00;99236.13;5128194;27;20447;-82
2023/06/13 01:54:50;;;;;;;27.55;20.40;;;;;;;19.00;100.00;99230.75;5113137;27;20058;-83
2023/06/13 01:57:40;;;;;;;24.50;20.98;;;;;;;18.96;100.00;99237.56;5124157;27;20100;-83
2023/06/13 02:00:26;;;;;;;27.73;21.65;;;;;;;18.83;100.00;99225.41;5127490;27;20103;-83
2023/06/13 02:03:11;;;;;;;20.92;18.75;;;;;;;19.02;100.00;99219.84;5127665;27;20043;-82
2023/06/13 02:05:55;;;;;;;21.77;19.50;;;;;;;18.80;100.00;99225.91;5128258;27;20091;-82
2023/06/13 02:08:40;;;;;;;25.92;19.25;;;;;;;18.95;100.00;99231.44;5132048;27;20050;-81
2023/06/13 02:11:26;;;;;;;22.20;18.30;;;;;;;18.82;100.00;99226.47;5132410;27;20034;-82
2023/06/13 02:14:11;;;;;;;24.65;20.27;;;;;;;18.87;100.00;99229.22;5131684;27;20037;-81
2023/06/13 02:16:54;;;;;;;20.73;18.20;;;;;;;18.82;100.00;99226.47;5131288;27;20099;-82
2023/06/13 02:19:39;;;;;;;27.63;18.25;;;;;;;18.75;100.00;99231.16;5125747;27;20092;-82
2023/06/13 02:22:22;;;;;;;19.33;16.83;;;;;;;18.73;100.00;99222.63;5128792;27;20119;-82
2023/06/13 02:25:07;;;;;;;19.58;16.65;;;;;;;18.51;100.00;99215.41;5123732;27;20511;-82
2023/06/13 02:27:52;;;;;;;21.35;16.52;;;;;;;18.29;100.00;99189.56;5123411;27;20039;-82
2023/06/13 02:30:35;;;;;;;18.90;15.82;;;;;;;18.54;100.00;99221.03;5120556;27;20144;-82
2023/06/13 02:33:19;;;;;;;21.73;16.10;;;;;;;18.49;100.00;99222.81;5126689;27;20102;-82
2023/06/13 02:36:07;;;;;;;20.17;15.27;;;;;;;18.47;100.00;99219.56;5124227;27;20133;-82
2023/06/13 02:38:51;;;;;;;18.33;15.23;;;;;;;18.47;100.00;99224.88;5122604;27;20043;-82
2023/06/13 02:41:35;;;;;;;21.60;16.60;;;;;;;18.40;100.00;99230.38;5125930;27;20776;-82
2023/06/13 02:44:19;;;;;;;;;;;;;;;18.44;100.00;99223.53;5125062;27;20045;-82
2023/06/13 02:47:03;;;;;;;19.33;16.45;;;;;;;18.28;100.00;99217.19;5121165;27;20285;-83
2023/06/13 02:49:47;;;;;;;21.70;16.85;;;;;;;18.18;100.00;99217.00;5103851;27;20524;-84
2023/06/13 02:52:31;;;;;;;22.88;17.88;;;;;;;18.18;100.00;99228.44;5119407;27;20046;-83
2023/06/13 02:55:17;;;;;;;23.02;17.88;;;;;;;18.09;100.00;99216.59;5122262;27;20070;-83
2023/06/13 02:58:01;;;;;;;25.40;18.05;;;;;;;18.11;100.00;99220.63;5125381;27;20185;-84
2023/06/13 03:00:45;;;;;;;21.35;17.92;;;;;;;18.08;100.00;99228.25;5123870;27;20058;-83
2023/06/13 03:03:29;;;;;;;19.95;17.52;;;;;;;18.10;100.00;99226.97;5121406;27;20035;-83
2023/06/13 03:06:17;;;;;;;22.25;16.88;;;;;;;18.09;100.00;99217.41;5120075;27;20042;-83
2023/06/13 03:09:01;;;;;;;24.15;18.15;;;;;;;17.96;100.00;99209.69;5121210;27;20525;-83
2023/06/13 03:11:45;;;;;;;24.10;18.75;;;;;;;17.92;100.00;99213.88;5104288;27;20050;-83
2023/06/13 03:14:29;;;;;;;21.77;18.13;;;;;;;17.82;100.00;99215.28;5125171;27;20042;-83
2023/06/13 03:17:16;;;;;;;24.33;18.60;;;;;;;17.84;100.00;99218.50;5119330;28;20496;-83
2023/06/13 03:20:00;;;;;;;35.53;19.27;;;;;;;17.71;100.00;99202.91;5107984;28;20110;-83
2023/06/13 03:22:44;;;;;;;27.20;19.73;;;;;;;17.72;100.00;99216.97;5123848;28;20114;-83
2023/06/13 03:25:29;;;;;;;24.30;19.52;;;;;;;17.68;100.00;99209.47;5106219;28;20046;-84
2023/06/13 03:28:13;;;;;;;29.40;20.00;;;;;;;17.69;100.00;99212.94;5118352;28;20409;-83
2023/06/13 03:31:00;;;;;;;26.30;19.95;;;;;;;17.73;100.00;99210.59;5126992;27;20035;-83
2023/06/13 03:33:44;;;;;;;25.02;20.95;;;;;;;17.67;100.00;99209.69;5120857;27;20041;-83
2023/06/13 03:36:28;;;;;;;23.85;19.38;;;;;;;17.68;100.00;99203.34;5123037;27;20548;-83
2023/06/13 03:39:12;;;;;;;22.27;19.98;;;;;;;17.71;100.00;99189.63;5126998;27;20042;-82
2023/06/13 03:41:56;;;;;;;25.17;21.10;;;;;;;17.82;100.00;99207.34;5125703;27;20088;-83
2023/06/13 03:44:46;;;;;;;26.23;21.15;;;;;;;17.69;100.00;99205.00;5110586;27;20038;-83
2023/06/13 03:47:30;;;;;;;30.30;22.20;;;;;;;17.57;100.00;99197.03;5126482;27;20038;-82
2023/06/13 03:50:14;;;;;;;26.90;20.17;;;;;;;17.59;100.00;99200.28;5107250;27;20123;-83
2023/06/13 03:52:58;;;;;;;21.95;18.90;;;;;;;17.64;100.00;99186.28;5126039;27;20049;-83
2023/06/13 03:55:44;;;;;;;25.77;18.48;;;;;;;17.72;100.00;99193.88;5105578;27;20054;-83
2023/06/13 03:58:29;;;;;;;22.00;18.15;;;;;;;17.73;100.00;99192.84;5130424;27;20069;-83
2023/06/13 04:01:13;;;;;;;23.55;19.00;;;;;;;17.82;100.00;99199.38;5123602;27;20084;-83
2023/06/13 04:03:57;;;;;;;25.42;17.88;;;;;;;17.67;100.00;99196.44;5122494;27;20034;-83
2023/06/13 04:06:47;;;;;;;25.83;18.08;;;;;;;17.80;100.00;99206.78;5124372;27;20397;-83
2023/06/13 04:09:31;;;;;;;23.65;19.17;;;;;;;17.72;100.00;99201.84;5109158;27;20070;-83
2023/06/13 04:12:15;;;;;;;24.13;19.58;;;;;;;17.67;100.00;99204.38;5127455;27;20400;-83
2023/06/13 04:14:59;;;;;;;26.13;19.77;;;;;;;17.61;100.00;99205.34;5114678;27;20045;-83
2023/06/13 04:17:43;;;;;;;26.13;18.88;;;;;;;17.66;100.00;99187.69;5127624;27;20399;-83
2023/06/13 04:20:28;;;;;;;25.70;18.88;;;;;;;17.73;100.00;99190.19;5124550;27;20101;-85
2023/06/13 04:23:13;;;;;;;26.42;19.45;;;;;;;17.75;100.00;99201.38;5126126;27;20041;-84
2023/06/13 04:26:00;;;;;;;27.13;19.05;;;;;;;18.01;100.00;99201.81;5121620;27;20047;-84
2023/06/13 04:28:45;;;;;;;28.25;19.15;;;;;;;17.91;100.00;99204.31;5125381;27;20074;-84
2023/06/13 04:31:34;;;;;;;22.88;18.92;;;;;;;17.88;100.00;99207.41;5120070;27;20500;-84
2023/06/13 04:34:20;;;;;;;23.52;18.80;;;;;;;17.97;100.00;99208.66;5118626;27;20094;-83
2023/06/13 04:37:04;;;;;;;25.15;18.95;;;;;;;17.77;100.00;99209.91;5125294;27;20039;-84
2023/06/13 04:39:48;;;;;;;26.35;17.88;;;;;;;18.03;100.00;99199.75;5107622;27;20042;-84
2023/06/13 04:42:32;;;;;;;24.40;18.90;;;;;;;17.90;100.00;99215.97;5121136;27;20039;-84
2023/06/13 04:45:20;;;;;;;21.73;17.02;;;;;;;17.99;100.00;99212.69;5121152;27;20138;-84
2023/06/13 04:48:05;;;;;;;23.08;17.17;;;;;;;18.05;100.00;99213.59;5123624;27;20109;-84
2023/06/13 04:50:49;;;;;;;24.95;16.80;;;;;;;17.82;100.00;99194.06;5118810;27;20087;-82
2023/06/13 04:53:33;;;;;;;25.40;16.45;;;;;;;18.03;100.00;99209.59;5125502;27;20030;-83
2023/06/13 04:56:17;;;;;;;21.60;16.05;;;;;;;17.97;100.00;99212.09;5104354;27;20030;-84
2023/06/13 04:59:01;;;;;;;21.38;16.38;;;;;;;17.84;100.00;99201.78;5123864;27;20081;-84
2023/06/13 05:01:47;;;;;;;21.73;16.33;;;;;;;18.19;100.00;99208.81;5124432;27;20092;-84
2023/06/13 05:04:31;;;;;;;20.00;16.15;;;;;;;18.08;100.00;99218.44;5128638;27;20080;-84
2023/06/13 05:07:16;;;;;;;22.15;16.25;;;;;;;17.93;100.00;99213.63;5120413;27;20047;-84
2023/06/13 05:10:04;;;;;;;21.20;15.68;;;;;;;17.94;100.00;99223.22;5124283;27;20042;-83
2023/06/13 05:12:49;;;;;;;25.75;16.98;;;;;;;17.85;100.00;99214.03;5124911;27;20087;-84
2023/06/13 05:15:33;;;;;;;24.95;16.95;;;;;;;18.17;100.00;99221.50;5102706;27;20045;-84
2023/06/13 05:18:17;;;;;;;24.95;15.65;;;;;;;18.06;100.00;99215.19;5122662;27;20088;-84
2023/06/13 05:21:01;;;;;;;21.23;15.52;;;;;;;18.21;100.00;99221.81;5125126;27;20097;-83
2023/06/13 05:23:48;;;;;;;20.60;15.68;;;;;;;18.27;100.00;99227.00;5120888;27;20053;-84
2023/06/13 05:26:33;;;;;;;21.15;16.35;;;;;;;18.50;100.00;99235.06;5122304;27;20039;-82
2023/06/13 05:29:17;;;;;;;23.70;15.40;;;;;;;18.52;100.00;99232.97;5120896;27;20058;-84
2023/06/13 05:32:01;;;;;;;23.40;16.02;;;;;;;18.56;100.00;99234.09;5103701;27;20053;-82
2023/06/13 05:34:46;;;;;;;22.55;15.45;;;;;;;18.63;100.00;99229.41;5122004;27;20130;-83
2023/06/13 05:37:31;;;;;;;24.50;15.20;;;;;;;18.61;100.00;99223.53;5120321;27;20065;-82
2023/06/13 05:40:15;;;;;;;21.70;14.68;;;;;;;18.36;100.00;99235.38;5105450;27;20100;-84
2023/06/13 05:43:00;;;;;;;18.27;14.57;;;;;;;18.31;100.00;99227.31;5123540;27;20409;-83
2023/06/13 05:45:44;;;;;;;19.00;14.25;;;;;;;18.56;100.00;99234.88;5123038;27;20102;-83
2023/06/13 05:48:29;;;;;;;23.02;14.88;;;;;;;18.80;100.00;99239.22;5120584;27;20034;-82
2023/06/13 05:51:13;;;;;;;19.85;13.98;;;;;;;18.89;100.00;99231.63;5122912;27;20079;-84
2023/06/13 05:53:57;;;;;;;24.27;14.00;;;;;;;18.93;100.00;99244.19;5121440;27;20034;-84
2023/06/13 05:56:41;;;;;;;22.25;13.52;;;;;;;19.01;100.00;99234.22;5124938;27;20095;-83
2023/06/13 05:59:25;;;;;;;15.10;12.70;;;;;;;18.95;100.00;99242.09;5101168;27;20478;-84
2023/06/13 06:02:13;;;;;;;16.70;13.07;;;;;;;18.96;100.00;99237.56;5117891;27;20392;-85
2023/06/13 06:05:00;;;;;;;17.70;12.70;;;;;;;18.93;100.00;99228.25;5107547;27;20088;-85
2023/06/13 06:07:45;;;;;;;16.63;12.20;;;;;;;19.31;100.00;99243.66;5126614;27;20410;-84
2023/06/13 06:10:29;;;;;;;17.92;12.65;;;;;;;19.20;100.00;99238.19;5119867;27;20027;-81
2023/06/13 06:13:13;;;;;;;19.10;13.43;;;;;;;19.04;100.00;99239.03;5121480;27;20461;-84
2023/06/13 06:15:57;;;;;;;16.50;13.05;;;;;;;19.23;100.00;99224.38;5124841;27;20082;-83
2023/06/13 06:18:41;;;;;;;20.75;13.43;;;;;;;19.03;100.00;99226.78;5125238;27;20042;-83
2023/06/13 06:21:25;;;;;;;18.13;12.82;;;;;;;19.42;100.00;99234.72;5120492;27;20561;-84
2023/06/13 06:24:09;;;;;;;19.05;13.18;;;;;;;19.43;100.00;99233.66;5122557;27;21726;-83
2023/06/13 06:26:53;;;;;;;20.88;13.52;;;;;;;19.28;100.00;99228.97;5108723;27;20096;-82
2023/06/13 06:29:39;;;;;;;19.00;13.75;;;;;;;19.40;100.00;99229.66;5120792;27;20512;-84
2023/06/13 06:32:23;;;;;;;18.67;14.32;;;;;;;19.13;100.00;99232.25;5123700;27;20062;-82
2023/06/13 06:35:08;;;;;;;18.05;15.35;;;;;;;19.37;100.00;99221.38;5125131;27;20046;-86
2023/06/13 06:37:52;;;;;;;20.33;14.90;;;;;;;19.70;100.00;99224.94;5108982;27;20042;-86
2023/06/13 06:40:36;;;;;;;18.42;14.95;;;;;;;19.62;100.00;99220.03;5109649;27;20147;-84
2023/06/13 06:43:20;;;;;;;20.17;16.15;;;;;;;19.63;100.00;99227.78;5109750;27;20050;-84
2023/06/13 06:46:04;;;;;;;20.23;15.90;;;;;;;19.75;100.00;99224.97;5123010;27;20083;-85
2023/06/13 06:48:47;;;;;;;;;;;;;;;20.01;100.00;99219.91;5106078;27;20042;-84
2023/06/13 06:51:31;;;;;;;24.40;15.45;;;;;;;19.81;100.00;99194.66;5120643;27;19975;-86
2023/06/13 06:54:15;;;;;;;23.67;16.42;;;;;;;19.90;100.00;99210.22;5119396;27;20084;-86
2023/06/13 06:57:01;;;;;;;22.13;15.82;;;;;;;20.21;100.00;99219.31;5106633;27;20118;-88
2023/06/13 06:59:45;;;;;;;20.33;15.07;;;;;;;20.30;100.00;99224.16;5119388;27;20521;-87
2023/06/13 07:02:29;;;;;;;17.75;15.20;;;;;;;20.19;100.00;99220.59;5127056;27;20131;-89
2023/06/13 07:05:15;;;;;;;23.02;16.75;;;;;;;20.44;100.00;99227.19;5118454;27;20516;-84
2023/06/13 07:08:00;;;;;;;23.15;16.77;;;;;;;20.28;100.00;99216.44;5125859;27;20050;-89
2023/06/13 07:10:44;;;;;;;21.98;15.70;;;;;;;20.59;100.00;99227.31;5117804;28;20108;-88
2023/06/13 07:13:28;;;;;;;19.45;15.55;;;;;;;20.82;100.00;99217.34;5127107;27;20050;-83
2023/06/13 07:16:13;;;;;;;21.98;15.63;;;;;;;20.98;100.00;99221.72;5118561;27;20130;-87
2023/06/13 07:18:56;;;;;;;17.88;15.95;;;;;;;20.58;100.00;99217.72;5101143;28;20112;-86
2023/06/13 07:21:40;;;;;;;22.80;16.48;;;;;;;20.83;100.00;99222.44;5105528;28;20057;-85
2023/06/13 07:24:25;;;;;;;21.55;15.43;;;;;;;20.80;100.00;99211.47;5099660;28;20038;-80
2023/06/13 07:27:10;;;;;;;21.45;16.08;;;;;;;21.09;100.00;99221.78;5119746;28;20058;-84
2023/06/13 07:29:54;;;;;;;19.50;15.18;;;;;;;20.93;100.00;99226.19;5122393;28;20504;-86
2023/06/13 07:32:41;;;;;;;22.55;15.18;;;;;;;21.22;100.00;99231.16;5125810;28;20051;-86
2023/06/13 07:35:25;;;;;;;20.88;15.95;;;;;;;21.32;100.00;99225.06;5122581;28;20054;-88
2023/06/13 07:38:09;;;;;;;21.95;17.23;;;;;;;21.14;100.00;99218.34;5104548;28;20038;-82
2023/06/13 07:40:53;;;;;;;26.10;16.70;;;;;;;21.39;100.00;99225.63;5108462;28;20042;-84
2023/06/13 07:43:37;;;;;;;21.02;16.73;;;;;;;21.25;100.00;99212.78;5117531;28;20042;-86
2023/06/13 07:46:21;;;;;;;22.45;16.08;;;;;;;21.55;100.00;99213.91;5123734;28;20103;-86
2023/06/13 07:49:05;;;;;;;24.75;15.98;;;;;;;21.43;100.00;99213.38;5117586;28;20089;-86
2023/06/13 07:51:48;;;;;;;;;;;;;;;21.42;100.00;99219.78;5106752;28;20050;-86
2023/06/13 07:54:32;;;;;;;19.23;15.63;;;;;;;21.28;100.00;99218.66;5103460;28;19993;-87
2023/06/13 07:57:16;;;;;;;20.70;16.20;;;;;;;21.26;100.00;99217.03;5106376;28;20179;-87
2023/06/13 08:00:06;;;;;;;19.15;15.38;;;;;;;21.93;100.00;99219.13;5120149;28;20042;-84
2023/06/13 08:02:51;;;;;;;18.75;14.50;;;;;;;22.29;100.00;99217.50;5117300;28;20046;-84
2023/06/13 08:05:35;;;;;;;21.52;16.48;;;;;;;21.94;98.63;99214.56;5118620;28;20090;-83
2023/06/13 08:08:19;;;;;;;22.95;16.92;;;;;;;21.70;95.37;99225.75;5117208;28;20491;-83
2023/06/13 08:11:03;;;;;;;20.65;15.15;;;;;;;22.08;96.57;99212.97;5123495;28;20127;-84
2023/06/13 08:13:47;;;;;;;24.45;15.32;;;;;;;22.15;96.73;99225.25;5119258;28;20046;-84
2023/06/13 08:16:31;;;;;;;21.45;15.35;;;;;;;22.25;94.85;99217.25;5117544;27;20108;-85
2023/06/13 08:19:15;;;;;;;22.67;14.63;;;;;;;22.58;93.18;99211.66;5124868;27;20039;-84
2023/06/13 08:21:59;;;;;;;18.42;14.55;;;;;;;22.87;95.38;99224.41;5126121;27;20045;-83
2023/06/13 08:24:45;;;;;;;18.58;15.15;;;;;;;22.71;93.90;99216.44;5126287;27;20074;-82
2023/06/13 08:27:29;;;;;;;19.10;14.85;;;;;;;22.96;92.97;99222.78;5105008;27;20045;-77
2023/06/13 08:30:13;;;;;;;19.27;14.95;;;;;;;22.47;92.40;99226.91;5124298;27;20043;-78
2023/06/13 08:33:01;;;;;;;20.08;15.40;;;;;;;22.90;92.94;99230.03;5110352;27;20034;-78
2023/06/13 08:35:45;;;;;;;20.65;15.50;;;;;;;22.92;92.13;99225.22;5125651;27;20043;-78
2023/06/13 08:38:29;;;;;;;17.52;15.23;;;;;;;23.06;93.26;99224.63;5124459;27;20491;-78
2023/06/13 08:41:14;;;;;;;24.95;16.02;;;;;;;22.74;91.25;99220.44;5122775;27;20042;-78
2023/06/13 08:43:59;;;;;;;20.40;15.25;;;;;;;22.96;91.42;99217.44;5122518;27;20047;-79
2023/06/13 08:46:43;;;;;;;18.73;15.48;;;;;;;22.81;89.71;99218.28;5125892;27;20073;-80
2023/06/13 08:49:28;;;;;;;23.92;15.05;;;;;;;22.73;89.48;99225.00;5121443;27;20080;-80
2023/06/13 08:52:13;;;;;;;25.25;16.42;;;;;;;22.90;89.52;99230.03;5118722;27;20053;-80
2023/06/13 08:54:59;;;;;;;19.48;15.75;;;;;;;23.19;90.06;99205.31;5104508;27;20145;-80
2023/06/13 08:57:45;;;;;;;22.92;15.32;;;;;;;23.37;89.11;99221.84;5107030;27;20116;-79
2023/06/13 09:00:35;;;;;;;23.02;15.95;;;;;;;22.96;89.60;99212.88;5123245;27;20043;-81
2023/06/13 09:03:20;;;;;;;22.23;15.70;;;;;;;23.43;88.63;99212.72;5122489;27;20096;-80
2023/06/13 09:06:04;;;;;;;18.08;15.23;;;;;;;22.97;85.77;99203.00;5116399;27;20471;-81
2023/06/13 09:08:50;;;;;;;19.50;14.02;;;;;;;23.67;85.08;99195.97;5116466;27;20100;-79
2023/06/13 09:11:35;;;;;;;17.92;14.73;;;;;;;23.73;84.84;99212.84;5117362;27;20047;-79
2023/06/13 09:14:20;;;;;;;15.23;13.68;;;;;;;23.79;83.20;99209.84;5121337;27;20542;-80
2023/06/13 09:17:05;;;;;;;20.50;14.60;;;;;;;24.04;83.38;99200.03;5125020;27;20144;-79
2023/06/13 09:19:49;;;;;;;18.63;14.95;;;;;;;23.70;83.64;99203.47;5115032;27;20099;-80
2023/06/13 09:22:36;;;;;;;18.65;14.45;;;;;;;23.82;83.74;99211.97;5116886;27;20042;-79
2023/06/13 09:25:21;;;;;;;19.95;14.57;;;;;;;23.89;82.62;99206.31;5120676;27;20038;-80
2023/06/13 09:28:32;;;;;;;15.52;13.27;;;;;;;24.29;82.78;99202.81;5107424;27;20136;-79
2023/06/13 09:31:16;;;;;;;18.63;13.23;;;;;;;24.30;80.09;99196.34;5111627;27;20049;-83
2023/06/13 09:34:00;;;;;;;17.05;14.23;;;;;;;24.05;79.08;99193.59;5101455;27;20177;-81
2023/06/13 09:36:45;;;;;;;18.02;13.57;;;;;;;24.41;79.63;99189.00;5098322;27;20043;-81
2023/06/13 09:39:31;;;;;;;17.20;14.07;;;;;;;24.59;80.58;99196.34;5115598;27;20095;-81
2023/06/13 09:42:19;;;;;;;19.17;13.68;;;;;;;25.06;81.58;99198.53;5114688;27;20069;-80
2023/06/13 09:45:08;;;;;;;18.75;13.88;;;;;;;24.10;79.72;99204.28;5119315;27;20103;-80
2023/06/13 09:47:52;;;;;;;17.23;13.10;;;;;;;24.99;79.24;99195.41;5113577;27;20058;-80
2023/06/13 09:50:37;;;;;;;18.15;14.07;;;;;;;25.15;79.50;99180.69;5118711;27;20060;-80
2023/06/13 09:53:22;;;;;;;14.82;13.20;;;;;;;25.22;78.19;99208.00;5113286;27;20108;-81
2023/06/13 09:56:12;;;;;;;18.80;14.50;;;;;;;25.40;78.87;99205.63;5113264;27;20133;-81
2023/06/13 09:58:56;;;;;;;18.92;14.73;;;;;;;25.40;79.19;99208.31;5120922;27;20430;-81
2023/06/13 10:01:41;;;;;;;23.05;15.77;;;;;;;25.19;79.81;99210.47;5100460;27;20104;-80
2023/06/13 10:04:25;;;;;;;24.83;15.57;;;;;;;25.34;78.58;99212.16;5116830;27;20125;-82
2023/06/13 10:07:11;;;;;;;19.13;13.65;;;;;;;25.65;80.52;99206.38;5125839;27;20050;-82
2023/06/13 10:09:56;;;;;;;18.45;15.15;;;;;;;25.39;80.60;99217.47;5115978;27;20104;-79
2023/06/13 10:12:50;;;;;;;25.17;15.85;;;;;;;25.23;81.36;99214.97;5122073;27;20049;-80
2023/06/13 10:15:39;;;;;;;21.98;14.98;;;;;;;25.60;81.01;99217.22;5118906;27;20081;-80
2023/06/13 10:18:36;;;;;;;19.17;15.02;;;;;;;25.85;82.34;99215.25;5103379;27;20100;-80
2023/06/13 10:21:23;;;;;;;23.73;15.25;;;;;;;25.35;80.86;99217.25;5110318;27;20070;-80
2023/06/13 10:24:08;;;;;;;20.60;15.45;;;;;;;26.01;82.46;99211.22;5116447;27;20042;-80
2023/06/13 10:26:58;;;;;;;16.50;14.77;;;;;;;26.05;79.54;99212.22;5102427;27;20076;-81
2023/06/13 10:30:06;;;;;;;20.58;14.98;;;;;;;26.09;79.52;99217.84;5105436;28;20058;-81
2023/06/13 10:33:01;;;;;;;19.38;15.10;;;;;;;26.49;78.40;99206.69;5100867;27;20401;-81
2023/06/13 10:36:14;;;;;;;19.77;14.88;;;;;;;26.48;79.68;99207.78;5101408;27;20050;-81
2023/06/13 10:39:46;;;;;;;19.30;14.40;;;;;;;26.65;78.52;99207.22;5112021;27;20062;-81
2023/06/13 10:42:37;;;;;;;20.90;13.98;;;;;;;26.49;78.01;99210.19;5094120;27;20089;-80
2023/06/13 10:45:23;;;;;;;19.45;14.63;;;;;;;26.62;77.10;99197.84;5119187;27;20051;-81
2023/06/13 10:48:07;;;;;;;19.45;13.43;;;;;;;26.84;74.36;99198.25;5117569;27;20469;-81
2023/06/13 10:50:56;;;;;;;19.20;13.82;;;;;;;26.93;73.48;99208.06;5113516;27;20663;-80
2023/06/13 10:53:42;;;;;;;16.80;12.95;;;;;;;26.91;72.94;99214.81;5117864;27;20128;-81
2023/06/13 10:56:31;;;;;;;15.55;12.68;;;;;;;26.89;73.09;99207.03;5115860;27;20046;-81
2023/06/13 10:59:16;;;;;;;16.60;13.43;;;;;;;26.84;71.77;99217.88;5114660;27;20401;-83
2023/06/13 11:02:01;;;;;;;21.00;13.30;;;;;;;27.24;72.58;99222.78;5117213;27;20042;-79
2023/06/13 11:04:50;;;;;;;15.65;13.15;;;;;;;27.22;71.86;99225.00;5118637;27;20451;-79
2023/06/13 11:07:36;;;;;;;22.30;14.45;;;;;;;27.57;70.53;99208.38;5110500;27;20099;-79
2023/06/13 11:10:22;;;;;;;24.50;14.15;;;;;;;27.88;71.22;99216.56;5120097;27;20480;-80
2023/06/13 11:13:20;;;;;;;22.20;14.45;;;;;;;27.97;70.63;99218.50;5118820;27;20107;-80
2023/06/13 11:16:36;;;;;;;22.52;13.20;;;;;;;28.08;71.73;99223.34;5117040;27;20130;-79
2023/06/13 11:19:23;;;;;;;15.40;12.60;;;;;;;28.35;70.33;99216.25;5118458;27;20106;-81
2023/06/13 11:22:13;;;;;;;18.88;14.20;;;;;;;27.74;69.41;99223.88;5110237;28;20119;-81
2023/06/13 11:24:59;;;;;;;21.60;14.98;;;;;;;27.67;70.41;99232.41;5119797;28;20111;-81
2023/06/13 11:27:43;;;;;;;20.98;13.10;;;;;;;27.88;69.13;99213.84;5098383;28;20046;-80
2023/06/13 11:30:28;;;;;;;17.70;12.52;;;;;;;28.25;69.22;99211.09;5114470;27;20082;-81
2023/06/13 11:33:13;;;;;;;22.83;13.63;;;;;;;27.99;67.82;99211.72;5116471;27;20066;-81
2023/06/13 11:35:58;;;;;;;17.30;12.35;;;;;;;28.27;67.59;99219.69;5116500;27;20042;-83
2023/06/13 11:39:03;;;;;;;19.90;13.05;;;;;;;28.19;65.47;99213.13;5114605;28;20088;-82
2023/06/13 11:41:47;;;;;;;19.92;12.25;;;;;;;28.30;63.64;99213.69;5102015;28;20096;-82
2023/06/13 11:44:31;;;;;;;15.48;12.50;;;;;;;28.50;64.37;99203.47;5111852;28;20463;-81
2023/06/13 11:47:16;;;;;;;17.35;12.40;;;;;;;28.51;63.05;99210.47;5113517;27;20061;-80
2023/06/13 11:50:00;;;;;;;17.88;11.65;;;;;;;28.76;62.66;99208.16;5115195;27;20046;-81
2023/06/13 11:52:44;;;;;;;17.88;11.45;;;;;;;28.81;59.60;99215.38;5104044;27;20074;-82
2023/06/13 11:55:28;;;;;;;14.57;10.95;;;;;;;28.97;61.43;99218.44;5121962;27;20092;-82
2023/06/13 11:58:12;;;;;;;11.93;10.70;;;;;;;29.12;63.15;99217.19;5118270;27;20108;-80
2023/06/13 12:00:58;;;;;;;15.63;11.18;;;;;;;29.39;61.23;99216.13;5104959;27;20039;-82
2023/06/13 12:03:46;;;;;;;17.27;10.43;;;;;;;29.20;58.98;99217.22;5117711;27;20046;-80
2023/06/13 12:06:30;;;;;;;14.68;10.98;;;;;;;29.00;58.56;99212.41;5121288;27;20042;-84
2023/06/13 12:09:15;;;;;;;12.70;10.40;;;;;;;29.38;57.07;99213.72;5123649;27;20050;-84
2023/06/13 12:11:59;;;;;;;18.13;11.50;;;;;;;29.42;59.24;99204.69;5118472;27;20039;-83
2023/06/13 12:14:52;;;;;;;13.88;11.18;;;;;;;29.47;56.26;99218.06;5123994;27;20128;-80
2023/06/13 12:17:37;;;;;;;17.05;11.48;;;;;;;29.11;55.94;99205.59;5126281;27;20458;-83
2023/06/13 12:20:24;;;;;;;12.45;10.70;;;;;;;28.67;56.56;99210.03;5106791;27;20042;-83
2023/06/13 12:23:08;;;;;;;12.80;10.93;;;;;;;29.35;57.09;99215.94;5119208;27;20058;-81
2023/06/13 12:25:52;;;;;;;14.40;10.48;;;;;;;29.47;56.57;99212.66;5125552;27;20050;-81
2023/06/13 12:28:36;;;;;;;19.63;11.45;;;;;;;29.40;55.58;99212.31;5122578;27;20050;-83
2023/06/13 12:31:37;;;;;;;11.43;10.30;;;;;;;29.79;56.28;99207.88;5106232;27;20546;-80
2023/06/13 12:34:34;;;;;;;15.93;10.93;;;;;;;29.87;56.82;99210.88;5121366;27;20054;-81
2023/06/13 12:37:19;;;;;;;16.52;10.48;;;;;;;29.89;54.24;99209.47;5120238;27;20046;-80
2023/06/13 12:40:12;;;;;;;16.60;10.52;;;;;;;29.75;55.24;99204.22;5125355;27;20046;-80